createdAt,value
2018-09-27T00:00:28.505Z,10.30
2018-09-27T00:02:57.138Z,8.10
2018-09-27T00:05:25.804Z,8.53
2018-09-27T00:07:54.477Z,8.70
2018-09-27T00:10:23.146Z,7.63
2018-09-27T00:12:51.647Z,10.43
2018-09-27T00:15:20.246Z,10.53
2018-09-27T00:17:48.851Z,8.10
2018-09-27T00:20:17.368Z,12.90
2018-09-27T00:22:45.913Z,9.83
2018-09-27T00:25:14.418Z,15.50
2018-09-27T00:27:42.908Z,11.53
2018-09-27T00:30:11.412Z,10.77
2018-09-27T00:32:40.087Z,8.40
2018-09-27T00:35:08.668Z,8.20
2018-09-27T00:37:37.394Z,6.03
2018-09-27T00:40:05.969Z,12.33
2018-09-27T00:42:34.767Z,12.73
2018-09-27T00:45:03.346Z,6.37
2018-09-27T00:47:31.888Z,10.93
2018-09-27T00:50:00.398Z,10.70
2018-09-27T00:52:29.034Z,9.40
2018-09-27T00:54:57.624Z,8.13
2018-09-27T00:57:26.080Z,9.70
2018-09-27T00:59:54.531Z,9.53
2018-09-27T01:02:23.156Z,10.83
2018-09-27T01:04:51.801Z,6.47
2018-09-27T01:07:20.355Z,8.23
2018-09-27T01:09:48.971Z,7.67
2018-09-27T01:12:17.557Z,9.03
2018-09-27T01:14:46.201Z,8.37
2018-09-27T01:17:14.779Z,5.37
2018-09-27T01:19:43.402Z,11.10
2018-09-27T01:22:12.028Z,7.83
2018-09-27T01:24:40.550Z,11.90
2018-09-27T01:27:09.077Z,9.30
2018-09-27T01:29:37.661Z,9.00
2018-09-27T01:32:06.257Z,7.07
2018-09-27T01:34:34.765Z,9.37
2018-09-27T01:37:03.219Z,11.47
2018-09-27T01:39:31.827Z,12.43
2018-09-27T01:42:00.415Z,12.17
2018-09-27T01:44:29.199Z,11.03
2018-09-27T01:46:57.831Z,11.03
2018-09-27T01:49:26.288Z,9.23
2018-09-27T01:51:54.792Z,12.07
2018-09-27T01:54:23.297Z,7.33
2018-09-27T01:56:51.744Z,11.93
2018-09-27T01:59:20.283Z,11.13
2018-09-27T02:01:48.852Z,13.33
2018-09-27T02:04:17.578Z,10.70
2018-09-27T02:06:46.063Z,9.10
2018-09-27T02:09:14.573Z,8.80
2018-09-27T02:11:43.173Z,7.30
2018-09-27T02:14:11.668Z,11.27
2018-09-27T02:16:40.316Z,15.53
2018-09-27T02:19:09.023Z,11.10
2018-09-27T02:21:37.655Z,10.07
2018-09-27T02:24:06.249Z,13.70
2018-09-27T02:26:34.875Z,21.97
2018-09-27T02:29:03.584Z,12.23
2018-09-27T02:31:32.146Z,13.77
2018-09-27T02:34:00.891Z,11.80
2018-09-27T02:36:29.465Z,16.03
2018-09-27T02:38:58.002Z,10.10
2018-09-27T02:41:26.604Z,11.30
2018-09-27T02:43:55.221Z,11.00
2018-09-27T02:46:23.838Z,8.90
2018-09-27T02:48:52.344Z,17.67
2018-09-27T02:51:20.918Z,12.40
2018-09-27T02:53:49.422Z,9.03
2018-09-27T02:56:18.135Z,12.07
2018-09-27T02:58:46.678Z,12.10
2018-09-27T03:01:15.337Z,14.00
2018-09-27T03:03:43.921Z,10.73
2018-09-27T03:06:12.589Z,8.43
2018-09-27T03:08:41.196Z,6.37
2018-09-27T03:11:09.624Z,7.60
2018-09-27T03:13:38.255Z,9.73
2018-09-27T03:16:06.849Z,7.60
2018-09-27T03:18:35.523Z,9.90
2018-09-27T03:21:04.148Z,11.63
2018-09-27T03:23:32.774Z,10.70
2018-09-27T03:26:01.377Z,9.60
2018-09-27T03:28:30.034Z,11.13
2018-09-27T03:30:58.763Z,8.00
2018-09-27T03:33:27.396Z,10.03
2018-09-27T03:35:56.030Z,11.87
2018-09-27T03:38:24.665Z,7.07
2018-09-27T03:40:53.341Z,9.80
2018-09-27T03:43:21.954Z,12.90
2018-09-27T03:45:50.510Z,10.70
2018-09-27T03:48:19.056Z,7.67
2018-09-27T03:50:47.853Z,19.53
2018-09-27T03:53:16.549Z,9.73
2018-09-27T03:55:45.173Z,8.83
2018-09-27T03:58:13.812Z,7.50
2018-09-27T04:00:42.384Z,14.53
2018-09-27T04:03:11.077Z,11.23
2018-09-27T04:05:39.792Z,8.10
2018-09-27T04:08:08.291Z,10.73
2018-09-27T04:10:37.003Z,8.77
2018-09-27T04:13:05.526Z,12.83
2018-09-27T04:15:34.253Z,8.70
2018-09-27T04:18:02.788Z,8.03
2018-09-27T04:20:35.183Z,7.67
2018-09-27T04:23:03.878Z,10.73
2018-09-27T04:25:32.489Z,8.00
2018-09-27T04:28:01.140Z,8.67
2018-09-27T04:30:29.727Z,9.43
2018-09-27T04:32:58.294Z,10.00
2018-09-27T04:35:26.881Z,8.70
2018-09-27T04:37:55.384Z,9.53
2018-09-27T04:40:23.952Z,10.70
2018-09-27T04:42:52.545Z,8.40
2018-09-27T04:45:21.194Z,9.20
2018-09-27T04:47:49.771Z,10.17
2018-09-27T04:50:18.385Z,10.13
2018-09-27T04:52:46.837Z,9.60
2018-09-27T04:55:15.457Z,11.20
2018-09-27T04:57:44.106Z,12.50
2018-09-27T05:00:12.710Z,13.00
2018-09-27T05:02:41.503Z,10.73
2018-09-27T05:05:10.086Z,9.17
2018-09-27T05:07:38.560Z,7.67
2018-09-27T05:10:07.772Z,11.20
2018-09-27T05:12:36.628Z,6.80
2018-09-27T05:15:05.662Z,7.23
2018-09-27T05:17:34.474Z,6.17
2018-09-27T05:20:03.625Z,9.40
2018-09-27T05:22:32.289Z,7.40
2018-09-27T05:25:00.861Z,9.37
2018-09-27T05:27:29.486Z,13.90
2018-09-27T05:29:58.087Z,7.57
2018-09-27T05:32:26.733Z,9.73
2018-09-27T05:34:55.473Z,9.77
2018-09-27T05:37:24.217Z,8.93
2018-09-27T05:39:52.853Z,6.93
2018-09-27T05:42:21.682Z,7.80
2018-09-27T05:44:50.136Z,8.30
2018-09-27T05:47:18.799Z,9.43
2018-09-27T05:49:47.509Z,10.30
2018-09-27T05:52:16.081Z,13.73
2018-09-27T05:54:44.736Z,14.60
2018-09-27T05:57:13.961Z,15.27
2018-09-27T05:59:42.586Z,16.03
2018-09-27T06:02:11.611Z,17.43
2018-09-27T06:04:40.234Z,16.37
2018-09-27T06:07:08.758Z,16.30
2018-09-27T06:09:37.258Z,13.40
2018-09-27T06:12:06.128Z,10.50
2018-09-27T06:14:35.017Z,13.27
2018-09-27T06:17:03.813Z,11.90
2018-09-27T06:19:32.480Z,13.03
2018-09-27T06:22:01.123Z,8.07
2018-09-27T06:24:30.016Z,15.97
2018-09-27T06:26:58.737Z,8.90
2018-09-27T06:29:27.536Z,11.00
2018-09-27T06:31:56.444Z,8.53
2018-09-27T06:34:25.451Z,8.83
2018-09-27T06:36:53.960Z,8.33
2018-09-27T06:39:22.615Z,11.57
2018-09-27T06:41:51.352Z,7.30
2018-09-27T06:44:20.294Z,7.10
2018-09-27T06:46:49.016Z,8.97
2018-09-27T06:49:17.905Z,12.03
2018-09-27T06:51:46.450Z,10.13
2018-09-27T06:54:14.904Z,8.73
2018-09-27T06:56:43.898Z,7.93
2018-09-27T06:59:12.595Z,13.60
2018-09-27T07:01:41.344Z,9.13
2018-09-27T07:04:10.100Z,14.93
2018-09-27T07:06:39.380Z,6.50
2018-09-27T07:09:11.035Z,9.40
2018-09-27T07:11:40.227Z,7.60
2018-09-27T07:16:50.085Z,6.60
2018-09-27T07:19:18.834Z,10.10
2018-09-27T07:21:47.763Z,8.63
2018-09-27T07:24:16.304Z,5.13
2018-09-27T07:26:45.220Z,6.40
2018-09-27T07:29:14.139Z,5.13
2018-09-27T07:31:43.180Z,4.03
2018-09-27T07:34:11.960Z,5.90
2018-09-27T07:36:40.618Z,4.67
2018-09-27T07:39:10.857Z,4.33
2018-09-27T07:41:39.725Z,9.00
2018-09-27T07:44:08.599Z,6.10
2018-09-27T07:46:37.592Z,3.67
2018-09-27T07:49:06.448Z,4.30
2018-09-27T07:51:35.371Z,5.30
2018-09-27T07:54:04.077Z,5.80
2018-09-27T07:56:32.831Z,5.73
2018-09-27T07:59:02.008Z,4.97
2018-09-27T08:01:32.589Z,5.23
2018-09-27T08:04:01.944Z,4.67
2018-09-27T08:06:31.032Z,4.50
2018-09-27T08:09:00.186Z,4.70
2018-09-27T08:11:28.706Z,5.67
2018-09-27T08:13:57.276Z,4.70
2018-09-27T08:16:26.283Z,4.23
2018-09-27T08:18:55.084Z,3.80
2018-09-27T08:21:24.159Z,3.00
2018-09-27T08:23:52.893Z,6.40
2018-09-27T08:26:21.937Z,3.70
2018-09-27T08:28:50.886Z,2.77
2018-09-27T08:31:19.648Z,4.55
2018-09-27T08:33:48.612Z,3.10
2018-09-27T08:36:17.536Z,5.93
2018-09-27T08:38:46.431Z,4.25
2018-09-27T08:41:15.251Z,4.00
2018-09-27T08:43:44.016Z,3.92
2018-09-27T08:46:12.621Z,3.72
2018-09-27T08:48:41.255Z,4.90
2018-09-27T08:51:09.914Z,3.52
2018-09-27T08:53:39.039Z,3.33
2018-09-27T08:56:07.952Z,5.17
2018-09-27T08:58:36.500Z,4.78
2018-09-27T09:01:05.221Z,3.72
2018-09-27T09:03:34.024Z,6.50
2018-09-27T09:06:02.536Z,3.77
2018-09-27T09:08:31.147Z,3.92
2018-09-27T09:10:59.924Z,4.40
2018-09-27T09:13:28.566Z,4.92
2018-09-27T09:15:57.236Z,6.78
2018-09-27T09:18:25.785Z,5.58
2018-09-27T09:20:54.561Z,6.42
2018-09-27T09:23:23.181Z,3.85
2018-09-27T09:25:58.668Z,4.60
2018-09-27T09:28:27.367Z,5.67
2018-09-27T09:30:56.241Z,5.90
2018-09-27T09:33:25.163Z,3.45
2018-09-27T09:35:54.524Z,4.75
2018-09-27T09:38:23.057Z,6.47
2018-09-27T09:40:51.880Z,6.63
2018-09-27T09:43:20.413Z,7.90
2018-09-27T09:45:49.047Z,8.40
2018-09-27T09:48:17.710Z,13.50
2018-09-27T09:50:46.256Z,8.57
2018-09-27T09:53:15.009Z,12.23
2018-09-27T09:55:43.557Z,12.30
2018-09-27T09:58:12.143Z,10.70
2018-09-27T10:00:40.818Z,14.00
2018-09-27T10:03:09.672Z,12.80
2018-09-27T10:05:38.866Z,12.00
2018-09-27T10:08:07.482Z,15.27
2018-09-27T10:10:35.901Z,12.17
2018-09-27T10:13:04.488Z,19.23
2018-09-27T10:15:33.766Z,12.63
2018-09-27T10:18:02.277Z,16.73
2018-09-27T10:20:30.825Z,16.80
2018-09-27T10:22:59.289Z,9.40
2018-09-27T10:25:27.839Z,16.80
2018-09-27T10:27:56.468Z,10.10
2018-09-27T10:30:25.224Z,9.77
2018-09-27T10:32:53.756Z,11.37
2018-09-27T10:35:23.153Z,12.83
2018-09-27T10:37:51.658Z,10.70
2018-09-27T10:40:20.060Z,12.93
2018-09-27T10:42:48.688Z,12.50
2018-09-27T10:45:17.333Z,10.57
2018-09-27T10:47:45.943Z,14.90
2018-09-27T10:50:14.594Z,11.37
2018-09-27T10:52:43.036Z,13.03
2018-09-27T10:55:11.466Z,16.43
2018-09-27T10:57:39.928Z,18.00
2018-09-27T11:00:08.501Z,12.77
2018-09-27T11:02:37.107Z,12.80
2018-09-27T11:05:05.935Z,10.30
2018-09-27T11:07:34.611Z,11.80
2018-09-27T11:10:03.246Z,12.00
2018-09-27T11:12:31.961Z,11.53
2018-09-27T11:15:00.937Z,11.57
2018-09-27T11:17:29.696Z,10.80
2018-09-27T11:19:58.488Z,14.67
2018-09-27T11:22:27.564Z,13.17
2018-09-27T11:24:56.362Z,14.03
2018-09-27T11:27:25.141Z,15.47
2018-09-27T11:29:59.188Z,12.53
2018-09-27T11:32:31.203Z,12.73
2018-09-27T11:35:00.279Z,14.37
2018-09-27T11:37:29.396Z,9.07
2018-09-27T11:39:58.369Z,9.10
2018-09-27T11:42:27.196Z,11.63
2018-09-27T11:44:55.840Z,10.40
2018-09-27T11:47:24.616Z,12.33
2018-09-27T11:49:53.379Z,13.07
2018-09-27T11:52:21.864Z,8.33
2018-09-27T11:54:50.634Z,9.13
2018-09-27T11:57:19.158Z,7.23
2018-09-27T11:59:47.606Z,10.47
2018-09-27T12:02:16.448Z,11.70
2018-09-27T12:04:45.019Z,8.13
2018-09-27T12:07:13.712Z,9.97
2018-09-27T12:09:42.315Z,6.90
2018-09-27T12:12:10.889Z,9.83
2018-09-27T12:14:40.168Z,10.07
2018-09-27T12:17:08.804Z,9.90
2018-09-27T12:19:37.904Z,9.27
2018-09-27T12:22:06.670Z,6.83
2018-09-27T12:24:35.146Z,7.93
2018-09-27T12:27:03.563Z,9.87
2018-09-27T12:29:32.004Z,9.53
2018-09-27T12:32:00.692Z,12.90
2018-09-27T12:34:29.136Z,7.07
2018-09-27T12:36:57.610Z,21.13
2018-09-27T12:39:28.905Z,8.53
2018-09-27T12:41:57.657Z,10.23
2018-09-27T12:44:26.749Z,6.30
2018-09-27T12:46:55.333Z,8.47
2018-09-27T12:49:23.844Z,6.77
2018-09-27T12:51:52.479Z,9.53
2018-09-27T12:54:21.355Z,9.60
2018-09-27T12:56:49.817Z,8.30
2018-09-27T12:59:18.512Z,9.43
2018-09-27T13:01:47.010Z,8.50
2018-09-27T13:04:15.713Z,6.90
2018-09-27T13:06:44.539Z,7.53
2018-09-27T13:09:13.157Z,7.70
2018-09-27T13:11:41.693Z,7.10
2018-09-27T13:14:10.095Z,4.93
2018-09-27T13:16:38.552Z,8.37
2018-09-27T13:19:07.045Z,9.67
2018-09-27T13:21:35.806Z,8.67
2018-09-27T13:24:04.277Z,8.27
2018-09-27T13:26:32.895Z,7.77
2018-09-27T13:29:01.478Z,4.87
2018-09-27T13:31:29.885Z,7.50
2018-09-27T13:33:58.711Z,7.00
2018-09-27T13:36:27.598Z,6.47
2018-09-27T13:38:56.092Z,9.83
2018-09-27T13:41:24.688Z,5.23
2018-09-27T13:43:53.142Z,4.50
2018-09-27T13:46:22.296Z,9.53
2018-09-27T13:48:50.917Z,5.20
2018-09-27T13:51:19.407Z,11.30
2018-09-27T13:53:48.022Z,7.27
2018-09-27T13:56:16.677Z,4.23
2018-09-27T13:58:45.171Z,4.40
2018-09-27T14:01:13.710Z,5.13
2018-09-27T14:03:42.561Z,6.40
2018-09-27T14:06:11.280Z,3.50
2018-09-27T14:08:40.070Z,7.40
2018-09-27T14:11:08.805Z,6.40
2018-09-27T14:13:37.245Z,4.83
2018-09-27T14:16:05.824Z,4.97
2018-09-27T14:18:34.600Z,13.70
2018-09-27T14:21:03.193Z,4.93
2018-09-27T14:23:32.088Z,7.40
2018-09-27T14:26:00.600Z,12.43
2018-09-27T14:28:29.356Z,7.40
2018-09-27T14:30:57.954Z,9.63
2018-09-27T14:33:26.442Z,6.70
2018-09-27T14:35:55.296Z,10.23
2018-09-27T14:38:23.952Z,12.63
2018-09-27T14:40:52.374Z,8.70
2018-09-27T14:43:21.368Z,7.43
2018-09-27T14:45:50.282Z,10.47
2018-09-27T14:48:18.895Z,6.53
2018-09-27T14:50:47.331Z,9.43
2018-09-27T14:53:15.891Z,9.00
2018-09-27T14:55:44.328Z,18.10
2018-09-27T14:58:12.928Z,10.83
2018-09-27T15:00:41.493Z,8.20
2018-09-27T15:03:10.012Z,8.10
2018-09-27T15:05:38.625Z,10.23
2018-09-27T15:08:07.049Z,11.57
2018-09-27T15:10:35.864Z,8.57
2018-09-27T15:13:04.348Z,12.00
2018-09-27T15:15:32.830Z,11.50
2018-09-27T15:18:01.475Z,9.33
2018-09-27T15:20:29.852Z,9.00
2018-09-27T15:22:58.313Z,8.67
2018-09-27T15:25:26.753Z,9.17
2018-09-27T15:27:55.355Z,9.87
2018-09-27T15:30:23.787Z,13.20
2018-09-27T15:32:52.308Z,8.90
2018-09-27T15:35:20.897Z,11.70
2018-09-27T15:37:49.613Z,8.97
2018-09-27T15:40:18.171Z,12.93
2018-09-27T15:42:46.708Z,11.30
2018-09-27T15:45:15.155Z,29.67
2018-09-27T15:47:43.680Z,15.10
2018-09-27T15:50:12.189Z,9.30
2018-09-27T15:52:40.753Z,9.63
2018-09-27T15:55:09.323Z,14.73
2018-09-27T15:57:37.777Z,15.67
2018-09-27T16:00:06.747Z,10.63
2018-09-27T16:02:35.228Z,8.30
2018-09-27T16:05:03.725Z,7.27
2018-09-27T16:07:32.233Z,9.47
2018-09-27T16:10:00.774Z,10.10
2018-09-27T16:12:29.468Z,17.57
2018-09-27T16:14:58.077Z,8.63
2018-09-27T16:17:26.750Z,9.57
2018-09-27T16:19:55.197Z,9.20
2018-09-27T16:22:23.761Z,9.30
2018-09-27T16:24:52.468Z,9.53
2018-09-27T16:27:20.964Z,9.60
2018-09-27T16:29:49.553Z,8.43
2018-09-27T16:32:18.085Z,8.63
2018-09-27T16:34:46.584Z,5.63
2018-09-27T16:37:15.299Z,7.30
2018-09-27T16:39:43.804Z,6.33
2018-09-27T16:42:12.262Z,9.10
2018-09-27T16:44:40.696Z,5.30
2018-09-27T16:47:09.165Z,14.27
2018-09-27T16:49:37.756Z,34.87
2018-09-27T16:52:06.306Z,19.23
2018-09-27T16:54:34.971Z,9.63
2018-09-27T16:57:03.613Z,7.00
2018-09-27T16:59:32.105Z,7.63
2018-09-27T17:02:00.585Z,4.57
2018-09-27T17:04:29.075Z,7.33
2018-09-27T17:06:57.710Z,5.33
2018-09-27T17:09:26.268Z,8.60
2018-09-27T17:11:54.743Z,5.40
2018-09-27T17:14:23.297Z,4.50
2018-09-27T17:16:51.848Z,4.73
2018-09-27T17:19:20.373Z,4.83
2018-09-27T17:21:48.849Z,4.70
2018-09-27T17:24:17.447Z,7.60
2018-09-27T17:26:46.061Z,4.80
2018-09-27T17:29:14.689Z,5.97
2018-09-27T17:31:43.520Z,4.90
2018-09-27T17:34:12.280Z,9.87
2018-09-27T17:36:41.553Z,6.53
2018-09-27T17:39:10.335Z,6.73
2018-09-27T17:41:38.829Z,5.63
2018-09-27T17:44:07.957Z,6.87
2018-09-27T17:46:36.547Z,9.70
2018-09-27T17:49:04.972Z,3.20
2018-09-27T17:51:33.464Z,6.07
2018-09-27T17:54:01.947Z,5.30
2018-09-27T17:56:30.856Z,7.57
2018-09-27T17:58:59.809Z,5.53
2018-09-27T18:01:28.438Z,7.63
2018-09-27T18:03:57.022Z,10.67
2018-09-27T18:06:25.593Z,10.20
2018-09-27T18:08:54.392Z,8.00
2018-09-27T18:11:23.090Z,5.00
2018-09-27T18:13:51.554Z,6.17
2018-09-27T18:16:21.042Z,5.93
2018-09-27T18:18:49.598Z,5.37
2018-09-27T18:21:18.313Z,6.50
2018-09-27T18:23:46.809Z,6.70
2018-09-27T18:26:15.460Z,5.40
2018-09-27T18:28:44.057Z,9.27
2018-09-27T18:31:12.737Z,5.13
2018-09-27T18:33:41.229Z,5.20
2018-09-27T18:36:09.832Z,4.53
2018-09-27T18:38:38.385Z,8.10
2018-09-27T18:41:06.939Z,6.23
2018-09-27T18:43:35.543Z,5.77
2018-09-27T18:46:04.164Z,4.17
2018-09-27T18:48:32.682Z,5.20
2018-09-27T18:51:01.204Z,9.03
2018-09-27T18:53:29.813Z,8.07
2018-09-27T18:55:58.329Z,9.43
2018-09-27T18:58:26.892Z,6.50
2018-09-27T19:00:55.322Z,9.50
2018-09-27T19:03:23.856Z,10.13
2018-09-27T19:05:52.421Z,6.97
2018-09-27T19:08:21.069Z,7.23
2018-09-27T19:10:49.662Z,13.53
2018-09-27T19:13:18.247Z,6.70
2018-09-27T19:15:46.820Z,10.27
2018-09-27T19:18:15.395Z,7.00
2018-09-27T19:20:44.004Z,6.17
2018-09-27T19:23:12.512Z,12.13
2018-09-27T19:25:41.116Z,8.00
2018-09-27T19:28:09.624Z,9.30
2018-09-27T19:30:38.205Z,8.27
2018-09-27T19:33:06.711Z,9.33
2018-09-27T19:35:35.286Z,9.50
2018-09-27T19:38:04.053Z,5.73
2018-09-27T19:40:32.548Z,9.83
2018-09-27T19:43:01.104Z,9.90
2018-09-27T19:45:29.774Z,18.60
2018-09-27T19:47:58.330Z,10.73
2018-09-27T19:50:26.911Z,8.37
2018-09-27T19:52:55.547Z,11.00
2018-09-27T19:55:24.121Z,11.93
2018-09-27T19:57:52.731Z,11.67
2018-09-27T20:00:21.425Z,8.80
2018-09-27T20:02:50.133Z,12.93
2018-09-27T20:05:18.765Z,16.10
2018-09-27T20:07:47.289Z,14.20
2018-09-27T20:10:15.987Z,10.10
2018-09-27T20:12:44.768Z,16.27
2018-09-27T20:15:13.304Z,17.90
2018-09-27T20:17:41.881Z,10.00
2018-09-27T20:20:10.635Z,14.40
2018-09-27T20:22:39.217Z,9.07
2018-09-27T20:25:07.960Z,19.63
2018-09-27T20:27:36.621Z,14.23
2018-09-27T20:30:05.857Z,15.60
2018-09-27T20:32:34.553Z,12.83
2018-09-27T20:35:03.238Z,17.23
2018-09-27T20:37:31.802Z,20.00
2018-09-27T20:40:00.436Z,13.70
2018-09-27T20:42:29.157Z,12.33
2018-09-27T20:44:57.849Z,15.33
2018-09-27T20:47:26.563Z,15.03
2018-09-27T20:49:55.399Z,14.33
2018-09-27T20:52:24.237Z,15.00
2018-09-27T20:54:52.897Z,14.73
2018-09-27T20:57:21.602Z,12.97
2018-09-27T20:59:50.262Z,11.27
2018-09-27T21:02:19.037Z,13.40
2018-09-27T21:04:47.733Z,15.17
2018-09-27T21:07:16.429Z,17.87
2018-09-27T21:09:45.140Z,11.37
2018-09-27T21:12:13.719Z,10.53
2018-09-27T21:14:42.400Z,10.17
2018-09-27T21:17:11.050Z,12.50
2018-09-27T21:19:39.746Z,16.10
2018-09-27T21:22:08.441Z,13.20
2018-09-27T21:24:37.107Z,10.13
2018-09-27T21:27:05.792Z,12.53
2018-09-27T21:29:34.466Z,11.53
2018-09-27T21:32:03.216Z,15.47
2018-09-27T21:34:31.918Z,16.93
2018-09-27T21:37:00.573Z,10.60
2018-09-27T21:39:29.269Z,12.10
2018-09-27T21:41:57.795Z,19.57
2018-09-27T21:44:26.529Z,11.23
2018-09-27T21:46:55.377Z,12.40
2018-09-27T21:49:24.152Z,18.67
2018-09-27T21:51:52.829Z,14.00
2018-09-27T21:54:21.684Z,14.63
2018-09-27T21:56:50.422Z,15.47
2018-09-27T21:59:19.150Z,15.67
2018-09-27T22:01:47.730Z,21.90
2018-09-27T22:04:16.512Z,16.83
2018-09-27T22:06:46.561Z,20.17
2018-09-27T22:09:15.261Z,15.60
2018-09-27T22:11:43.929Z,16.47
2018-09-27T22:14:12.505Z,17.33
2018-09-27T22:16:40.988Z,18.33
2018-09-27T22:19:09.736Z,12.60
2018-09-27T22:21:38.539Z,18.20
2018-09-27T22:24:07.205Z,18.13
2018-09-27T22:26:35.983Z,23.90
2018-09-27T22:29:04.705Z,18.93
2018-09-27T22:31:33.538Z,15.73
2018-09-27T22:34:02.308Z,22.10
2018-09-27T22:36:33.769Z,16.83
2018-09-27T22:39:02.412Z,20.90
2018-09-27T22:41:31.134Z,16.60
2018-09-27T22:43:59.744Z,19.20
2018-09-27T22:46:28.365Z,20.40
2018-09-27T22:48:57.101Z,18.10
2018-09-27T22:51:25.996Z,22.80
2018-09-27T22:53:54.651Z,24.10
2018-09-27T22:56:23.266Z,21.13
2018-09-27T22:58:51.904Z,16.60
2018-09-27T23:01:20.598Z,15.73
2018-09-27T23:03:49.234Z,19.90
2018-09-27T23:06:17.857Z,22.40
2018-09-27T23:08:46.569Z,25.00
2018-09-27T23:11:15.281Z,25.20
2018-09-27T23:13:44.174Z,23.93
2018-09-27T23:16:12.871Z,23.93
2018-09-27T23:18:41.566Z,25.20
2018-09-27T23:21:10.281Z,26.00
2018-09-27T23:23:39.098Z,28.03
2018-09-27T23:26:07.912Z,25.13
2018-09-27T23:28:36.547Z,24.07
2018-09-27T23:31:05.201Z,24.53
2018-09-27T23:33:33.878Z,32.37
2018-09-27T23:36:02.552Z,29.00
2018-09-27T23:38:31.198Z,31.67
2018-09-27T23:40:59.763Z,32.53
2018-09-27T23:43:28.337Z,36.87
2018-09-27T23:45:57.034Z,29.13
2018-09-27T23:48:25.888Z,27.40
2018-09-27T23:50:54.545Z,34.37
2018-09-27T23:53:23.300Z,38.00
2018-09-27T23:55:52.149Z,28.60
2018-09-27T23:58:20.810Z,28.40
